createdAt,value
2019-04-10T00:00:06.769Z,36.13
2019-04-10T00:01:09.189Z,36.43
2019-04-10T00:02:07.090Z,36.13
2019-04-10T00:03:08.259Z,36.22
2019-04-10T00:04:07.153Z,36.02
2019-04-10T00:05:07.612Z,36.22
2019-04-10T00:06:06.802Z,36.22
2019-04-10T00:07:12.785Z,36.22
2019-04-10T00:08:06.682Z,36.13
2019-04-10T00:09:06.656Z,36.32
2019-04-10T00:10:07.658Z,36.22
2019-04-10T00:11:06.664Z,36.22
2019-04-10T00:12:07.439Z,36.13
2019-04-10T00:13:06.789Z,36.22
2019-04-10T00:14:06.610Z,36.13
2019-04-10T00:15:07.516Z,36.22
2019-04-10T00:16:07.603Z,36.22
2019-04-10T00:17:06.924Z,36.13
2019-04-10T00:18:07.400Z,36.02
2019-04-10T00:19:06.648Z,36.13
2019-04-10T00:20:07.851Z,36.22
2019-04-10T00:21:07.103Z,36.13
2019-04-10T00:22:06.527Z,36.13
2019-04-10T00:23:06.872Z,36.13
2019-04-10T00:24:06.507Z,36.02
2019-04-10T00:25:06.554Z,36.32
2019-04-10T00:26:07.598Z,36.32
2019-04-10T00:27:07.177Z,36.13
2019-04-10T00:28:08.044Z,36.52
2019-04-10T00:29:07.791Z,36.52
2019-04-10T00:30:06.938Z,36.52
2019-04-10T00:31:07.352Z,36.02
2019-04-10T00:32:07.789Z,36.32
2019-04-10T00:33:06.410Z,36.52
2019-04-10T00:34:07.412Z,36.13
2019-04-10T00:35:06.520Z,36.32
2019-04-10T00:36:06.367Z,36.52
2019-04-10T00:37:19.914Z,36.52
2019-04-10T00:38:07.155Z,36.52
2019-04-10T00:39:06.471Z,36.52
2019-04-10T00:40:06.912Z,36.52
2019-04-10T00:41:06.321Z,36.52
2019-04-10T00:42:06.304Z,36.52
2019-04-10T00:43:07.009Z,36.72
2019-04-10T00:44:06.265Z,36.52
2019-04-10T00:45:06.255Z,36.52
2019-04-10T00:46:06.277Z,36.52
2019-04-10T00:47:06.593Z,36.43
2019-04-10T00:48:07.863Z,36.52
2019-04-10T00:49:07.175Z,36.52
2019-04-10T00:50:06.466Z,36.52
2019-04-10T00:51:06.756Z,36.43
2019-04-10T00:52:06.192Z,36.52
2019-04-10T00:53:06.173Z,36.43
2019-04-10T00:54:06.156Z,36.43
2019-04-10T00:55:07.789Z,36.52
2019-04-10T00:56:06.298Z,36.32
2019-04-10T00:57:06.135Z,36.43
2019-04-10T00:58:06.111Z,36.52
2019-04-10T00:59:08.738Z,36.43
2019-04-10T01:00:06.526Z,36.43
2019-04-10T01:01:06.099Z,36.34
2019-04-10T01:02:06.077Z,36.34
2019-04-10T01:03:07.060Z,36.52
2019-04-10T01:04:06.997Z,36.44
2019-04-10T01:05:06.892Z,36.43
2019-04-10T01:06:06.046Z,36.43
2019-04-10T01:07:06.027Z,36.32
2019-04-10T01:08:06.715Z,36.52
2019-04-10T01:09:06.825Z,36.32
2019-04-10T01:10:06.097Z,36.43
2019-04-10T01:11:06.622Z,36.74
2019-04-10T01:12:06.022Z,36.44
2019-04-10T01:13:05.961Z,36.22
2019-04-10T01:14:07.486Z,36.44
2019-04-10T01:15:06.679Z,36.24
2019-04-10T01:16:07.057Z,36.24
2019-04-10T01:17:06.246Z,36.74
2019-04-10T01:18:06.755Z,36.32
2019-04-10T01:19:05.950Z,36.22
2019-04-10T01:20:07.119Z,36.34
2019-04-10T01:21:06.195Z,36.64
2019-04-10T01:22:06.565Z,36.52
2019-04-10T01:23:05.971Z,36.24
2019-04-10T01:24:05.863Z,36.64
2019-04-10T01:25:06.142Z,36.54
2019-04-10T01:26:07.226Z,36.54
2019-04-10T01:27:05.796Z,36.64
2019-04-10T01:28:06.763Z,36.34
2019-04-10T01:29:06.523Z,36.43
2019-04-10T01:30:07.064Z,36.64
2019-04-10T01:31:06.756Z,36.74
2019-04-10T01:32:05.768Z,36.24
2019-04-10T01:33:06.132Z,36.54
2019-04-10T01:34:05.730Z,36.24
2019-04-10T01:35:05.869Z,36.54
2019-04-10T01:36:06.832Z,36.32
2019-04-10T01:37:05.687Z,36.34
2019-04-10T01:38:06.557Z,36.34
2019-04-10T01:39:07.762Z,36.44
2019-04-10T01:40:06.615Z,36.34
2019-04-10T01:41:06.501Z,36.34
2019-04-10T01:42:06.135Z,36.34
2019-04-10T01:43:11.425Z,36.34
2019-04-10T01:44:05.753Z,36.34
2019-04-10T01:45:05.611Z,36.32
2019-04-10T01:46:06.257Z,36.32
2019-04-10T01:47:06.699Z,36.24
2019-04-10T01:48:05.991Z,36.34
2019-04-10T01:49:05.561Z,36.34
2019-04-10T01:50:06.374Z,36.34
2019-04-10T01:51:06.621Z,36.34
2019-04-10T01:52:05.537Z,36.34
2019-04-10T01:53:06.024Z,36.32
2019-04-10T01:54:05.512Z,35.93
2019-04-10T01:55:19.134Z,36.34
2019-04-10T01:56:05.485Z,35.94
2019-04-10T01:57:06.189Z,36.13
2019-04-10T01:58:05.548Z,36.24
2019-04-10T01:59:05.655Z,35.94
2019-04-10T02:00:05.442Z,36.64
2019-04-10T02:01:05.441Z,36.15
2019-04-10T02:02:05.435Z,36.15
2019-04-10T02:03:05.644Z,36.15
2019-04-10T02:04:05.409Z,36.15
2019-04-10T02:05:06.118Z,36.24
2019-04-10T02:06:05.385Z,36.15
2019-04-10T02:07:05.620Z,36.15
2019-04-10T02:08:09.030Z,35.85
2019-04-10T02:09:05.392Z,35.85
2019-04-10T02:10:05.357Z,36.24
2019-04-10T02:11:05.323Z,35.74
2019-04-10T02:12:06.203Z,36.44
2019-04-10T02:13:05.427Z,35.94
2019-04-10T02:14:06.014Z,35.74
2019-04-10T02:15:05.298Z,36.44
2019-04-10T02:16:06.205Z,35.94
2019-04-10T02:17:06.341Z,35.94
2019-04-10T02:18:05.439Z,35.94
2019-04-10T02:19:06.009Z,36.24
2019-04-10T02:20:05.222Z,35.94
2019-04-10T02:21:05.444Z,35.94
2019-04-10T02:22:05.201Z,35.94
2019-04-10T02:23:05.861Z,35.74
2019-04-10T02:24:05.187Z,35.94
2019-04-10T02:25:05.268Z,35.85
2019-04-10T02:26:06.012Z,36.04
2019-04-10T02:27:05.792Z,36.24
2019-04-10T02:28:05.135Z,35.74
2019-04-10T02:29:05.134Z,35.94
2019-04-10T02:30:07.272Z,35.94
2019-04-10T02:31:07.003Z,35.94
2019-04-10T02:32:05.111Z,35.94
2019-04-10T02:33:06.102Z,35.74
2019-04-10T02:34:07.011Z,35.64
2019-04-10T02:35:06.918Z,35.85
2019-04-10T02:36:05.623Z,36.24
2019-04-10T02:37:06.608Z,35.74
2019-04-10T02:38:22.636Z,35.64
2019-04-10T02:39:15.110Z,36.24
2019-04-10T02:40:07.124Z,35.85
2019-04-10T02:41:05.891Z,35.85
2019-04-10T02:42:06.130Z,35.94
2019-04-10T02:43:05.619Z,35.85
2019-04-10T02:44:05.135Z,35.85
2019-04-10T02:45:06.011Z,35.64
2019-04-10T02:46:06.443Z,35.94
2019-04-10T02:47:06.320Z,35.54
2019-04-10T02:48:06.163Z,35.64
2019-04-10T02:49:06.197Z,35.64
2019-04-10T02:50:06.162Z,35.85
2019-04-10T02:51:05.457Z,35.85
2019-04-10T02:52:06.467Z,35.94
2019-04-10T02:53:05.675Z,35.74
2019-04-10T02:54:05.265Z,35.64
2019-04-10T02:55:06.020Z,35.74
2019-04-10T02:56:05.407Z,35.64
2019-04-10T02:57:05.534Z,35.74
2019-04-10T02:58:06.109Z,35.54
2019-04-10T02:59:05.086Z,35.74
2019-04-10T03:00:05.397Z,35.64
2019-04-10T03:01:04.845Z,35.74
2019-04-10T03:02:06.228Z,35.94
2019-04-10T03:03:05.540Z,35.54
2019-04-10T03:04:05.470Z,35.74
2019-04-10T03:05:04.756Z,35.54
2019-04-10T03:06:05.129Z,35.54
2019-04-10T03:07:04.740Z,35.64
2019-04-10T03:08:05.454Z,35.64
2019-04-10T03:09:19.101Z,35.54
2019-04-10T03:10:15.300Z,35.74
2019-04-10T03:11:08.588Z,35.35
2019-04-10T03:12:06.156Z,35.64
2019-04-10T03:13:04.873Z,35.94
2019-04-10T03:14:04.756Z,35.54
2019-04-10T03:15:05.755Z,35.85
2019-04-10T03:16:05.472Z,35.44
2019-04-10T03:17:06.015Z,35.64
2019-04-10T03:18:04.602Z,35.35
2019-04-10T03:19:05.374Z,35.85
2019-04-10T03:20:05.745Z,35.74
2019-04-10T03:21:05.526Z,35.94
2019-04-10T03:22:07.237Z,35.64
2019-04-10T03:23:05.242Z,35.54
2019-04-10T03:24:04.533Z,35.85
2019-04-10T03:25:04.602Z,35.85
2019-04-10T03:26:05.513Z,35.74
2019-04-10T03:27:04.512Z,35.24
2019-04-10T03:28:05.054Z,35.85
2019-04-10T03:29:05.264Z,35.64
2019-04-10T03:30:05.226Z,35.54
2019-04-10T03:31:07.140Z,35.74
2019-04-10T03:32:06.489Z,35.74
2019-04-10T03:33:07.445Z,35.74
2019-04-10T03:34:08.135Z,35.85
2019-04-10T03:35:04.425Z,35.74
2019-04-10T03:36:05.290Z,35.74
2019-04-10T03:37:04.453Z,35.54
2019-04-10T03:38:04.394Z,35.74
2019-04-10T03:39:07.200Z,35.64
2019-04-10T03:40:04.959Z,36.04
2019-04-10T03:41:04.357Z,35.64
2019-04-10T03:42:05.014Z,35.74
2019-04-10T03:43:04.328Z,35.64
2019-04-10T03:44:04.315Z,35.85
2019-04-10T03:45:05.556Z,35.54
2019-04-10T03:46:05.370Z,35.85
2019-04-10T03:47:04.304Z,35.85
2019-04-10T03:48:04.941Z,35.54
2019-04-10T03:49:05.294Z,35.64
2019-04-10T03:50:04.641Z,35.85
2019-04-10T03:51:04.252Z,35.85
2019-04-10T03:52:05.138Z,35.64
2019-04-10T03:53:05.524Z,36.15
2019-04-10T03:54:04.806Z,35.64
2019-04-10T03:55:04.937Z,35.85
2019-04-10T03:56:05.303Z,35.64
2019-04-10T03:57:05.045Z,35.74
2019-04-10T03:58:04.187Z,35.54
2019-04-10T03:59:04.197Z,35.64
2019-04-10T04:00:04.163Z,35.64
2019-04-10T04:01:04.806Z,36.15
2019-04-10T04:02:05.243Z,35.85
2019-04-10T04:03:04.404Z,35.64
2019-04-10T04:04:04.948Z,35.74
2019-04-10T04:05:04.412Z,35.64
2019-04-10T04:06:04.141Z,35.54
2019-04-10T04:07:04.987Z,35.74
2019-04-10T04:08:04.472Z,35.54
2019-04-10T04:09:09.536Z,36.15
2019-04-10T04:10:04.386Z,36.04
2019-04-10T04:11:04.930Z,36.15
2019-04-10T04:12:04.399Z,36.16
2019-04-10T04:13:05.779Z,36.15
2019-04-10T04:14:04.090Z,36.15
2019-04-10T04:15:05.366Z,36.15
2019-04-10T04:16:04.058Z,36.15
2019-04-10T04:17:04.072Z,35.94
2019-04-10T04:18:04.517Z,35.94
2019-04-10T04:19:03.991Z,36.16
2019-04-10T04:20:04.418Z,35.96
2019-04-10T04:21:04.054Z,35.94
2019-04-10T04:22:04.070Z,36.15
2019-04-10T04:23:03.917Z,35.94
2019-04-10T04:24:03.891Z,36.16
2019-04-10T04:25:04.587Z,36.16
2019-04-10T04:26:03.879Z,35.94
2019-04-10T04:27:04.820Z,36.04
2019-04-10T04:28:04.670Z,35.94
2019-04-10T04:29:03.857Z,35.74
2019-04-10T04:30:04.238Z,36.15
2019-04-10T04:31:03.829Z,35.94
2019-04-10T04:32:04.815Z,35.94
2019-04-10T04:33:04.797Z,36.04
2019-04-10T04:34:04.524Z,35.94
2019-04-10T04:35:04.629Z,36.06
2019-04-10T04:36:04.146Z,35.74
2019-04-10T04:37:04.540Z,35.96
2019-04-10T04:38:04.527Z,35.76
2019-04-10T04:39:17.997Z,36.04
2019-04-10T04:40:03.725Z,36.04
2019-04-10T04:41:04.067Z,36.15
2019-04-10T04:42:03.708Z,36.06
2019-04-10T04:43:03.757Z,35.85
2019-04-10T04:44:03.971Z,35.74
2019-04-10T04:45:03.670Z,36.04
2019-04-10T04:46:03.691Z,35.94
2019-04-10T04:47:03.672Z,35.54
2019-04-10T04:48:03.648Z,35.85
2019-04-10T04:49:03.666Z,36.04
2019-04-10T04:50:03.687Z,35.94
2019-04-10T04:51:04.035Z,35.54
2019-04-10T04:52:03.687Z,36.06
2019-04-10T04:53:04.554Z,35.74
2019-04-10T04:54:04.523Z,35.94
2019-04-10T04:55:03.938Z,35.76
2019-04-10T04:56:04.091Z,35.96
2019-04-10T04:57:04.573Z,36.15
2019-04-10T04:58:04.109Z,35.36
2019-04-10T04:59:03.655Z,35.54
2019-04-10T05:00:03.504Z,35.74
2019-04-10T05:01:04.303Z,35.44
2019-04-10T05:02:03.495Z,35.54
2019-04-10T05:03:04.079Z,35.54
2019-04-10T05:04:03.523Z,35.85
2019-04-10T05:05:04.483Z,35.35
2019-04-10T05:06:03.822Z,35.94
2019-04-10T05:07:04.243Z,35.24
2019-04-10T05:08:05.821Z,35.06
2019-04-10T05:09:04.774Z,35.86
2019-04-10T05:10:03.395Z,36.04
2019-04-10T05:11:04.334Z,35.96
2019-04-10T05:12:03.534Z,35.76
2019-04-10T05:13:04.018Z,35.76
2019-04-10T05:14:04.874Z,35.05
2019-04-10T05:15:04.422Z,35.76
2019-04-10T05:16:03.345Z,35.86
2019-04-10T05:17:04.020Z,35.86
2019-04-10T05:18:04.054Z,35.86
2019-04-10T05:19:03.784Z,34.96
2019-04-10T05:20:03.290Z,35.66
2019-04-10T05:21:03.301Z,34.94
2019-04-10T05:22:04.024Z,34.96
2019-04-10T05:23:04.057Z,35.85
2019-04-10T05:24:03.316Z,34.96
2019-04-10T05:25:04.829Z,35.76
2019-04-10T05:26:04.019Z,35.74
2019-04-10T05:27:04.021Z,34.96
2019-04-10T05:28:03.650Z,34.94
2019-04-10T05:29:03.184Z,34.96
2019-04-10T05:30:04.171Z,34.96
2019-04-10T05:31:03.225Z,35.44
2019-04-10T05:32:03.161Z,34.94
2019-04-10T05:33:04.073Z,35.54
2019-04-10T05:34:03.139Z,35.36
2019-04-10T05:35:05.807Z,35.54
2019-04-10T05:36:03.109Z,35.35
2019-04-10T05:37:03.211Z,35.36
2019-04-10T05:38:04.538Z,35.35
2019-04-10T05:39:03.252Z,35.36
2019-04-10T05:40:03.387Z,35.46
2019-04-10T05:41:03.055Z,35.36
2019-04-10T05:42:04.215Z,35.35
2019-04-10T05:43:03.757Z,35.35
2019-04-10T05:44:03.526Z,35.46
2019-04-10T05:45:03.210Z,35.36
2019-04-10T05:46:03.001Z,35.35
2019-04-10T05:47:03.360Z,35.46
2019-04-10T05:48:03.338Z,35.05
2019-04-10T05:49:02.967Z,35.64
2019-04-10T05:50:03.941Z,36.36
2019-04-10T05:51:05.895Z,35.96
2019-04-10T05:52:04.146Z,36.04
2019-04-10T05:53:02.953Z,35.74
2019-04-10T05:54:02.926Z,36.46
2019-04-10T05:55:04.145Z,36.76
2019-04-10T05:56:03.523Z,36.56
2019-04-10T05:57:03.998Z,36.24
2019-04-10T05:58:02.905Z,36.15
2019-04-10T05:59:03.525Z,35.74
2019-04-10T06:00:02.845Z,35.96
2019-04-10T06:01:02.838Z,35.76
2019-04-10T06:02:03.128Z,36.15
2019-04-10T06:03:03.947Z,36.15
2019-04-10T06:04:03.097Z,35.56
2019-04-10T06:05:02.802Z,35.76
2019-04-10T06:06:02.830Z,35.54
2019-04-10T06:07:03.547Z,35.85
2019-04-10T06:08:02.776Z,34.96
2019-04-10T06:09:02.783Z,35.36
2019-04-10T06:10:05.741Z,35.46
2019-04-10T06:11:02.740Z,35.35
2019-04-10T06:12:04.086Z,35.54
2019-04-10T06:13:02.726Z,35.56
2019-04-10T06:14:03.241Z,35.05
2019-04-10T06:15:02.695Z,34.66
2019-04-10T06:16:03.553Z,34.66
2019-04-10T06:17:04.323Z,34.66
2019-04-10T06:18:03.532Z,35.05
2019-04-10T06:19:03.718Z,34.76
2019-04-10T06:20:02.817Z,34.46
2019-04-10T06:21:03.523Z,35.56
2019-04-10T06:22:03.524Z,34.96
2019-04-10T06:23:03.247Z,35.64
2019-04-10T06:24:03.604Z,36.16
2019-04-10T06:25:03.948Z,35.76
2019-04-10T06:26:04.062Z,30.87
2019-04-10T06:27:03.734Z,31.26
2019-04-10T06:28:03.537Z,32.17
2019-04-10T06:29:02.547Z,30.78
2019-04-10T06:30:04.326Z,29.58
2019-04-10T06:31:02.516Z,30.88
2019-04-10T06:32:03.232Z,30.99
2019-04-10T06:33:04.110Z,31.20
2019-04-10T06:34:02.554Z,30.99
2019-04-10T06:35:03.724Z,31.01
2019-04-10T06:36:02.865Z,30.31
2019-04-10T06:37:02.451Z,30.91
2019-04-10T06:38:02.453Z,30.71
2019-04-10T06:39:02.746Z,30.91
2019-04-10T06:40:12.713Z,30.73
2019-04-10T06:41:02.416Z,30.32
2019-04-10T06:42:02.616Z,30.32
2019-04-10T06:43:02.381Z,30.52
2019-04-10T06:44:03.561Z,30.43
2019-04-10T06:45:04.533Z,29.62
2019-04-10T06:46:02.350Z,30.43
2019-04-10T06:47:02.343Z,30.22
2019-04-10T06:48:02.691Z,30.12
2019-04-10T06:49:03.093Z,29.64
2019-04-10T06:50:02.635Z,31.43
2019-04-10T06:51:02.301Z,31.14
2019-04-10T06:52:02.291Z,31.02
2019-04-10T06:53:04.086Z,31.82
2019-04-10T06:54:07.018Z,31.82
2019-04-10T06:55:03.018Z,31.93
2019-04-10T06:56:03.029Z,31.62
2019-04-10T06:57:02.826Z,32.41
2019-04-10T06:58:02.745Z,31.81
2019-04-10T06:59:02.548Z,32.01
2019-04-10T07:00:02.434Z,32.21
2019-04-10T07:01:02.200Z,31.71
2019-04-10T07:02:13.051Z,32.01
2019-04-10T07:03:03.091Z,32.09
2019-04-10T07:04:07.413Z,32.40
2019-04-10T07:05:05.905Z,32.59
2019-04-10T07:06:09.747Z,32.20
2019-04-10T07:07:08.886Z,32.79
2019-04-10T07:08:10.639Z,32.40
2019-04-10T07:09:03.214Z,32.29
2019-04-10T07:10:02.399Z,32.40
2019-04-10T07:11:07.958Z,32.79
2019-04-10T07:12:03.412Z,32.48
2019-04-10T07:13:05.559Z,32.58
2019-04-10T07:14:02.050Z,32.88
2019-04-10T07:15:02.398Z,32.68
2019-04-10T07:16:02.240Z,33.08
2019-04-10T07:17:05.472Z,32.78
2019-04-10T07:18:03.019Z,32.98
2019-04-10T07:19:04.763Z,32.18
2019-04-10T07:20:02.044Z,32.56
2019-04-10T07:21:02.114Z,32.56
2019-04-10T07:22:05.255Z,32.86
2019-04-10T07:23:03.033Z,32.97
2019-04-10T07:24:05.334Z,32.36
2019-04-10T07:25:02.879Z,32.36
2019-04-10T07:26:01.943Z,33.26
2019-04-10T07:27:03.515Z,33.36
2019-04-10T07:28:02.881Z,33.56
2019-04-10T07:29:02.658Z,33.06
2019-04-10T07:30:01.885Z,33.06
2019-04-10T07:31:06.760Z,32.97
2019-04-10T07:32:04.802Z,33.76
2019-04-10T07:33:01.842Z,33.35
2019-04-10T07:34:03.333Z,32.86
2019-04-10T07:35:03.289Z,33.66
2019-04-10T07:36:05.598Z,33.75
2019-04-10T07:37:02.255Z,33.15
2019-04-10T07:38:02.528Z,33.45
2019-04-10T07:39:03.434Z,33.25
2019-04-10T07:40:03.317Z,33.84
2019-04-10T07:41:07.124Z,33.95
2019-04-10T07:42:02.053Z,34.13
2019-04-10T07:43:02.140Z,33.84
2019-04-10T07:44:01.825Z,34.94
2019-04-10T07:45:01.765Z,34.44
2019-04-10T07:46:01.714Z,34.55
2019-04-10T07:47:02.656Z,34.93
2019-04-10T07:48:02.526Z,35.33
2019-04-10T07:49:02.970Z,34.73
2019-04-10T07:50:03.212Z,35.33
2019-04-10T07:51:02.821Z,35.03
2019-04-10T07:52:02.457Z,35.23
2019-04-10T07:53:01.995Z,35.33
2019-04-10T07:54:01.903Z,34.43
2019-04-10T07:55:01.610Z,35.33
2019-04-10T07:56:06.793Z,34.63
2019-04-10T07:57:02.055Z,34.23
2019-04-10T07:58:02.695Z,35.42
2019-04-10T07:59:02.692Z,34.61
2019-04-10T08:00:03.137Z,35.71
2019-04-10T08:01:01.560Z,35.21
2019-04-10T08:02:02.531Z,35.31
2019-04-10T08:03:01.520Z,34.91
2019-04-10T08:04:01.896Z,34.91
2019-04-10T08:05:02.385Z,34.91
2019-04-10T08:06:02.400Z,35.51
2019-04-10T08:07:03.026Z,35.01
2019-04-10T08:08:01.474Z,35.91
2019-04-10T08:09:01.470Z,36.01
2019-04-10T08:10:01.506Z,36.11
2019-04-10T08:11:01.624Z,36.11
2019-04-10T08:12:01.434Z,35.61
2019-04-10T08:13:02.409Z,35.71
2019-04-10T08:14:01.392Z,35.61
2019-04-10T08:15:01.397Z,35.69
2019-04-10T08:16:02.771Z,35.69
2019-04-10T08:17:01.360Z,35.99
2019-04-10T08:18:02.445Z,36.11
2019-04-10T08:19:01.884Z,35.89
2019-04-10T08:20:02.069Z,36.09
2019-04-10T08:21:01.335Z,35.89
2019-04-10T08:22:01.324Z,35.89
2019-04-10T08:23:01.547Z,36.09
2019-04-10T08:24:02.531Z,36.09
2019-04-10T08:25:02.280Z,35.69
2019-04-10T08:26:01.276Z,35.89
2019-04-10T08:27:01.300Z,35.89
2019-04-10T08:28:01.241Z,35.89
2019-04-10T08:29:02.040Z,35.89
2019-04-10T08:30:03.202Z,34.89
2019-04-10T08:31:01.224Z,35.29
2019-04-10T08:32:02.052Z,34.99
2019-04-10T08:33:02.779Z,35.68
2019-04-10T08:34:01.227Z,34.28
2019-04-10T08:35:02.050Z,35.08
2019-04-10T08:36:01.244Z,35.47
2019-04-10T08:37:01.737Z,35.28
2019-04-10T08:38:01.410Z,34.98
2019-04-10T08:39:02.624Z,34.68
2019-04-10T08:40:01.146Z,35.19
2019-04-10T08:41:02.873Z,33.48
2019-04-10T08:42:02.071Z,32.98
2019-04-10T08:43:02.054Z,33.18
2019-04-10T08:44:02.284Z,33.58
2019-04-10T08:45:02.970Z,33.58
2019-04-10T08:46:02.041Z,33.30
2019-04-10T08:47:01.068Z,33.58
2019-04-10T08:48:01.458Z,32.89
2019-04-10T08:49:01.029Z,33.28
2019-04-10T08:50:01.464Z,33.08
2019-04-10T08:51:01.103Z,32.70
2019-04-10T08:52:01.063Z,32.90
2019-04-10T08:53:02.078Z,32.60
2019-04-10T08:54:00.972Z,32.18
2019-04-10T08:55:01.893Z,31.81
2019-04-10T08:56:00.934Z,32.60
2019-04-10T08:57:01.140Z,32.20
2019-04-10T08:58:00.912Z,32.50
2019-04-10T08:59:00.904Z,31.51
2019-04-10T09:00:00.906Z,31.40
2019-04-10T09:01:00.908Z,30.80
2019-04-10T09:02:01.979Z,30.80
2019-04-10T09:03:00.851Z,30.80
2019-04-10T09:04:01.499Z,32.50
2019-04-10T09:05:01.685Z,31.51
2019-04-10T09:06:02.577Z,31.30
2019-04-10T09:07:03.672Z,31.51
2019-04-10T09:08:02.464Z,30.62
2019-04-10T09:09:01.399Z,30.71
2019-04-10T09:10:01.829Z,31.02
2019-04-10T09:11:01.011Z,30.21
2019-04-10T09:12:01.827Z,30.31
2019-04-10T09:13:00.737Z,30.51
2019-04-10T09:14:01.535Z,30.80
2019-04-10T09:15:01.700Z,30.80
2019-04-10T09:16:02.510Z,31.10
2019-04-10T09:17:00.801Z,30.52
2019-04-10T09:18:01.850Z,30.71
2019-04-10T09:19:01.568Z,30.12
2019-04-10T09:20:00.720Z,29.41
2019-04-10T09:21:00.694Z,29.61
2019-04-10T09:22:00.660Z,29.63
2019-04-10T09:23:18.713Z,30.52
2019-04-10T09:24:00.784Z,29.93
2019-04-10T09:25:02.728Z,29.43
2019-04-10T09:26:01.892Z,30.32
2019-04-10T09:27:00.624Z,30.72
2019-04-10T09:28:02.287Z,29.51
2019-04-10T09:29:00.565Z,29.63
2019-04-10T09:30:02.719Z,29.61
2019-04-10T09:31:01.680Z,30.31
2019-04-10T09:32:00.533Z,30.21
2019-04-10T09:33:01.660Z,29.51
2019-04-10T09:34:01.228Z,29.41
2019-04-10T09:35:00.501Z,29.82
2019-04-10T09:36:00.646Z,29.71
2019-04-10T09:37:00.495Z,30.51
2019-04-10T09:38:00.594Z,30.71
2019-04-10T09:39:01.248Z,30.61
2019-04-10T09:40:01.035Z,29.61
2019-04-10T09:41:01.546Z,29.31
2019-04-10T09:42:01.326Z,29.61
2019-04-10T09:43:00.429Z,29.41
2019-04-10T09:44:01.036Z,30.51
2019-04-10T09:45:00.465Z,29.51
2019-04-10T09:46:00.378Z,30.51
2019-04-10T09:47:00.370Z,30.80
2019-04-10T09:48:00.550Z,30.51
2019-04-10T09:49:00.505Z,30.51
2019-04-10T09:50:00.369Z,30.21
2019-04-10T09:51:00.347Z,31.21
2019-04-10T09:52:00.688Z,30.51
2019-04-10T09:53:00.314Z,30.80
2019-04-10T09:54:01.469Z,30.91
2019-04-10T09:55:00.338Z,30.41
2019-04-10T09:56:01.116Z,30.31
2019-04-10T09:57:01.245Z,29.51
2019-04-10T09:58:00.570Z,31.10
2019-04-10T09:59:01.049Z,30.71
2019-04-10T10:00:00.976Z,30.71
2019-04-10T10:01:01.610Z,30.71
2019-04-10T10:02:00.496Z,30.71
2019-04-10T10:03:01.527Z,30.11
2019-04-10T10:04:01.201Z,30.31
2019-04-10T10:05:00.168Z,30.31
2019-04-10T10:06:01.816Z,30.31
2019-04-10T10:07:00.165Z,29.21
2019-04-10T10:08:00.248Z,29.71
2019-04-10T10:09:00.514Z,29.81
2019-04-10T10:10:01.326Z,29.99
2019-04-10T10:11:00.122Z,29.90
2019-04-10T10:12:01.150Z,28.91
2019-04-10T10:13:01.219Z,29.81
2019-04-10T10:14:00.071Z,29.11
2019-04-10T10:15:00.226Z,29.51
2019-04-10T10:16:00.814Z,29.99
2019-04-10T10:17:00.213Z,28.81
2019-04-10T10:18:01.211Z,28.81
2019-04-10T10:19:00.031Z,29.01
2019-04-10T10:20:00.005Z,29.41
2019-04-10T10:21:00.041Z,30.91
2019-04-10T10:22:02.275Z,30.61
2019-04-10T10:23:01.216Z,30.51
2019-04-10T10:24:00.541Z,30.49
2019-04-10T10:24:59.949Z,30.91
2019-04-10T10:25:59.973Z,30.41
2019-04-10T10:26:59.938Z,30.41
2019-04-10T10:28:00.090Z,32.09
2019-04-10T10:29:00.678Z,32.10
2019-04-10T10:30:00.562Z,31.29
2019-04-10T10:31:00.568Z,32.00
2019-04-10T10:32:00.370Z,30.91
2019-04-10T10:32:59.886Z,31.60
2019-04-10T10:33:59.857Z,31.51
2019-04-10T10:35:00.943Z,30.59
2019-04-10T10:35:59.907Z,30.49
2019-04-10T10:37:00.126Z,30.69
2019-04-10T10:38:01.062Z,30.79
2019-04-10T10:39:06.819Z,30.79
2019-04-10T10:39:59.790Z,30.69
2019-04-10T10:40:59.807Z,30.59
2019-04-10T10:41:59.770Z,31.39
2019-04-10T10:43:00.299Z,30.40
2019-04-10T10:44:00.609Z,30.89
2019-04-10T10:45:00.653Z,30.69
2019-04-10T10:46:00.874Z,30.59
2019-04-10T10:47:00.037Z,30.99
2019-04-10T10:47:59.695Z,30.49
2019-04-10T10:49:00.088Z,30.69
2019-04-10T10:49:59.674Z,31.07
2019-04-10T10:50:59.674Z,31.18
2019-04-10T10:51:59.665Z,30.68
2019-04-10T10:52:59.783Z,30.98
2019-04-10T10:54:02.505Z,30.68
2019-04-10T10:54:59.619Z,31.18
2019-04-10T10:56:00.095Z,29.38
2019-04-10T10:57:00.606Z,29.10
2019-04-10T10:57:59.749Z,29.98
2019-04-10T10:59:00.877Z,29.78
2019-04-10T11:00:00.554Z,29.58
2019-04-10T11:01:00.553Z,29.48
2019-04-10T11:02:00.282Z,29.58
2019-04-10T11:03:00.222Z,29.78
2019-04-10T11:03:59.540Z,28.99
2019-04-10T11:05:03.909Z,29.78
2019-04-10T11:06:00.494Z,29.08
2019-04-10T11:07:01.177Z,29.08
2019-04-10T11:07:59.904Z,29.68
2019-04-10T11:08:59.681Z,28.49
2019-04-10T11:10:01.169Z,29.08
2019-04-10T11:11:00.885Z,28.78
2019-04-10T11:12:00.139Z,29.38
2019-04-10T11:13:00.107Z,29.38
2019-04-10T11:13:59.580Z,29.48
2019-04-10T11:14:59.562Z,28.99
2019-04-10T11:16:03.653Z,29.38
2019-04-10T11:16:59.383Z,29.58
2019-04-10T11:18:00.253Z,30.08
2019-04-10T11:19:00.060Z,29.48
2019-04-10T11:19:59.610Z,29.78
2019-04-10T11:21:04.665Z,29.78
2019-04-10T11:21:59.346Z,28.09
2019-04-10T11:23:00.383Z,28.28
2019-04-10T11:24:00.860Z,29.28
2019-04-10T11:25:00.212Z,29.48
2019-04-10T11:25:59.782Z,29.78
2019-04-10T11:27:00.141Z,29.47
2019-04-10T11:28:00.185Z,29.78
2019-04-10T11:29:01.256Z,29.67
2019-04-10T11:29:59.890Z,28.77
2019-04-10T11:31:01.250Z,28.97
2019-04-10T11:32:00.003Z,29.86
2019-04-10T11:33:00.049Z,29.57
2019-04-10T11:34:00.138Z,28.99
2019-04-10T11:34:59.563Z,29.77
2019-04-10T11:36:00.141Z,28.38
2019-04-10T11:37:16.717Z,29.27
2019-04-10T11:38:00.836Z,28.97
2019-04-10T11:40:01.023Z,29.67
2019-04-10T11:41:00.099Z,29.37
2019-04-10T11:42:00.052Z,29.77
2019-04-10T11:43:02.423Z,28.38
2019-04-10T11:44:00.322Z,28.38
2019-04-10T11:44:59.396Z,28.27
2019-04-10T11:46:02.597Z,28.38
2019-04-10T11:46:59.096Z,28.67
2019-04-10T11:48:01.546Z,29.25
2019-04-10T11:49:00.754Z,29.57
2019-04-10T11:50:01.621Z,29.65
2019-04-10T11:51:01.145Z,28.38
2019-04-10T11:51:59.988Z,27.67
2019-04-10T11:53:01.597Z,28.08
2019-04-10T11:54:01.618Z,26.68
2019-04-10T11:55:08.786Z,27.78
2019-04-10T11:56:02.802Z,26.79
2019-04-10T11:57:02.870Z,27.48
2019-04-10T11:57:59.970Z,28.28
2019-04-10T11:58:59.317Z,27.39
2019-04-10T12:00:01.242Z,26.29
2019-04-10T12:01:00.166Z,26.69
2019-04-10T12:02:03.522Z,29.38
2019-04-10T12:03:00.854Z,27.09
2019-04-10T12:04:00.307Z,26.79
2019-04-10T12:05:03.460Z,27.09
2019-04-10T12:06:07.080Z,27.79
2019-04-10T12:07:03.818Z,26.29
2019-04-10T12:08:28.325Z,26.99
2019-04-10T12:12:01.603Z,26.81
2019-04-10T12:13:01.832Z,25.90
2019-04-10T12:14:02.977Z,26.01
2019-04-10T12:15:01.908Z,26.61
2019-04-10T12:16:05.107Z,26.70
2019-04-10T12:16:59.559Z,27.00
2019-04-10T12:17:58.880Z,27.40
2019-04-10T12:18:59.229Z,26.70
2019-04-10T12:20:00.537Z,27.00
2019-04-10T12:20:59.721Z,26.70
2019-04-10T12:21:58.689Z,26.31
2019-04-10T12:22:58.762Z,26.31
2019-04-10T12:23:59.563Z,26.70
2019-04-10T12:24:58.652Z,26.70
2019-04-10T12:25:59.047Z,25.82
2019-04-10T12:26:58.630Z,27.22
2019-04-10T12:27:59.562Z,26.82
2019-04-10T12:28:58.603Z,27.11
2019-04-10T12:29:59.246Z,26.31
2019-04-10T12:30:59.494Z,26.62
2019-04-10T12:31:58.624Z,27.02
2019-04-10T12:32:58.558Z,26.82
2019-04-10T12:34:00.017Z,25.92
2019-04-10T12:34:58.540Z,25.92
2019-04-10T12:35:58.534Z,26.72
2019-04-10T12:36:58.784Z,26.62
2019-04-10T12:38:02.815Z,26.52
2019-04-10T12:38:58.495Z,27.12
2019-04-10T12:39:59.241Z,26.52
2019-04-10T12:40:59.206Z,25.72
2019-04-10T12:41:59.473Z,26.72
2019-04-10T12:42:58.806Z,26.02
2019-04-10T12:43:59.116Z,26.32
2019-04-10T12:44:58.422Z,25.92
2019-04-10T12:45:58.597Z,25.82
2019-04-10T12:46:59.495Z,25.72
2019-04-10T12:47:58.588Z,25.62
2019-04-10T12:49:00.106Z,25.52
2019-04-10T12:49:58.368Z,25.82
2019-04-10T12:50:58.368Z,25.72
2019-04-10T12:51:58.440Z,25.92
2019-04-10T12:52:58.852Z,25.42
2019-04-10T12:53:58.400Z,25.92
2019-04-10T12:54:58.313Z,26.92
2019-04-10T12:55:59.784Z,26.02